KSU weather

Kristiansund Airport (Kvernberget)
Kvernberget, Møre og Romsdal, Norway

Public forecast

Using degrees Celsius for public forecast. Weather courtesy of forecast.io.

METAR (pilot weather report)

Retrieved 2019/05/27 06:20 UTC (32 minutes ago):

ENKB 270620Z 25003KT 200V320 9999 -RA FEW008 SCT015 BKN026 04/02 Q0999 RMK WIND 745FT 26004KT

TAF (pilot weather forecast)

Forecast is more than 12 hours old.

Closest forecast is Molde Airport, 26.9 nm (49.8 km) SW. Retrieved 2011/03/08 08:45 UTC (8 years ago):

TAF TAF ESDF 0808 FCNO33 ENMI 080800 RRC TAF ENML 080800Z 0809/0818 21015KT 9999 FEW030 BKN050 TEMPO 0809/0818 21022G35KT BECMG 0815/0818 21022G35KT TEMPO 0815/0818 4000 RADZ BKN012